sensor_id;sensor_type;location;lat;lon;timestamp;pressure;altitude;pressure_sealevel;temperature;humidity
47104;BME280;32853;52.164;5.400;2023-11-22T00:02:26;102414.31;;;6.42;100.00
47104;BME280;32853;52.164;5.400;2023-11-22T00:05:01;102403.00;;;6.31;100.00
47104;BME280;32853;52.164;5.400;2023-11-22T00:07:34;102628.72;;;7.83;100.00
47104;BME280;32853;52.164;5.400;2023-11-22T00:10:17;102653.91;;;7.95;100.00
47104;BME280;32853;52.164;5.400;2023-11-22T00:13:08;102651.31;;;7.87;100.00
47104;BME280;32853;52.164;5.400;2023-11-22T00:15:52;102724.25;;;8.28;100.00
47104;BME280;32853;52.164;5.400;2023-11-22T00:18:19;102374.38;;;6.05;100.00
47104;BME280;32853;52.164;5.400;2023-11-22T00:20:49;102468.03;;;6.46;100.00
47104;BME280;32853;52.164;5.400;2023-11-22T00:23:25;102362.22;;;5.93;100.00
47104;BME280;32853;52.164;5.400;2023-11-22T00:25:54;102749.44;;;8.19;100.00
47104;BME280;32853;52.164;5.400;2023-11-22T00:28:23;102685.16;;;7.82;100.00
47104;BME280;32853;52.164;5.400;2023-11-22T00:30:52;102559.22;;;7.13;100.00
47104;BME280;32853;52.164;5.400;2023-11-22T00:33:18;102436.78;;;6.22;100.00
47104;BME280;32853;52.164;5.400;2023-11-22T00:35:48;102438.50;;;6.21;100.00
47104;BME280;32853;52.164;5.400;2023-11-22T00:38:38;102490.63;;;6.73;100.00
47104;BME280;32853;52.164;5.400;2023-11-22T00:41:07;102747.72;;;8.19;100.00
47104;BME280;32853;52.164;5.400;2023-11-22T00:43:34;102467.09;;;6.30;100.00
47104;BME280;32853;52.164;5.400;2023-11-22T00:46:12;102464.53;;;6.39;100.00
47104;BME280;32853;52.164;5.400;2023-11-22T00:49:25;102455.88;;;6.36;100.00
47104;BME280;32853;52.164;5.400;2023-11-22T00:52:36;102736.41;;;8.19;100.00
47104;BME280;32853;52.164;5.400;2023-11-22T00:55:12;102425.50;;;6.17;100.00
47104;BME280;32853;52.164;5.400;2023-11-22T00:58:01;102436.75;;;6.19;100.00
47104;BME280;32853;52.164;5.400;2023-11-22T01:00:32;102431.56;;;6.19;100.00
47104;BME280;32853;52.164;5.400;2023-11-22T01:03:17;102752.06;;;8.22;100.00
47104;BME280;32853;52.164;5.400;2023-11-22T01:12:42;102457.47;;;6.06;100.00
47104;BME280;32853;52.164;5.400;2023-11-22T05:41:44;102688.59;;;5.20;100.00
47104;BME280;32853;52.164;5.400;2023-11-22T05:44:30;102920.63;;;6.83;100.00
47104;BME280;32853;52.164;5.400;2023-11-22T05:47:01;102928.41;;;6.77;100.00
47104;BME280;32853;52.164;5.400;2023-11-22T05:49:37;102817.63;;;6.04;100.00
47104;BME280;32853;52.164;5.400;2023-11-22T05:52:06;102957.81;;;6.73;100.00
47104;BME280;32853;52.164;5.400;2023-11-22T05:54:34;102588.44;;;4.57;100.00
47104;BME280;32853;52.164;5.400;2023-11-22T05:57:00;102793.25;;;5.90;100.00
47104;BME280;32853;52.164;5.400;2023-11-22T05:59:52;102933.50;;;6.66;100.00
47104;BME280;32853;52.164;5.400;2023-11-22T06:02:22;102631.75;;;4.67;100.00
47104;BME280;32853;52.164;5.400;2023-11-22T06:10:37;102933.31;;;6.49;100.00
47104;BME280;32853;52.164;5.400;2023-11-22T06:16:06;102536.03;;;4.11;100.00
47104;BME280;32853;52.164;5.400;2023-11-22T06:24:51;102946.41;;;6.58;100.00
47104;BME280;32853;52.164;5.400;2023-11-22T06:27:30;102961.13;;;6.58;100.00
47104;BME280;32853;52.164;5.400;2023-11-22T06:29:58;102639.25;;;4.47;100.00
47104;BME280;32853;52.164;5.400;2023-11-22T06:32:27;102847.63;;;5.79;100.00
47104;BME280;32853;52.164;5.400;2023-11-22T06:37:44;102624.69;;;4.55;100.00
47104;BME280;32853;52.164;5.400;2023-11-22T06:40:15;102966.31;;;6.56;100.00
47104;BME280;32853;52.164;5.400;2023-11-22T06:43:21;102953.38;;;6.62;100.00
47104;BME280;32853;52.164;5.400;2023-11-22T06:45:56;102962.00;;;6.60;100.00
47104;BME280;32853;52.164;5.400;2023-11-22T06:59:36;102922.97;;;6.55;100.00
47104;BME280;32853;52.164;5.400;2023-11-22T07:42:36;102969.69;;;6.48;100.00
47104;BME280;32853;52.164;5.400;2023-11-22T08:03:28;102666.97;;;4.54;100.00
47104;BME280;32853;52.164;5.400;2023-11-22T08:07:07;102736.50;;;4.81;100.00
47104;BME280;32853;52.164;5.400;2023-11-22T08:14:17;102731.00;;;4.61;100.00
47104;BME280;32853;52.164;5.400;2023-11-22T08:23:50;103028.69;;;6.55;100.00
47104;BME280;32853;52.164;5.400;2023-11-22T08:26:18;103016.50;;;6.52;100.00
47104;BME280;32853;52.164;5.400;2023-11-22T08:28:49;102712.66;;;4.46;100.00
47104;BME280;32853;52.164;5.400;2023-11-22T08:31:29;103017.19;;;6.36;100.00
47104;BME280;32853;52.164;5.400;2023-11-22T08:34:20;103023.31;;;6.41;100.00
47104;BME280;32853;52.164;5.400;2023-11-22T08:37:39;102686.72;;;4.45;100.00
47104;BME280;32853;52.164;5.400;2023-11-22T08:41:18;103014.72;;;6.47;100.00
47104;BME280;32853;52.164;5.400;2023-11-22T08:44:13;102740.13;;;4.94;100.00
47104;BME280;32853;52.164;5.400;2023-11-22T08:46:41;102814.19;;;5.37;100.00
47104;BME280;32853;52.164;5.400;2023-11-22T08:49:18;102670.41;;;4.53;100.00
47104;BME280;32853;52.164;5.400;2023-11-22T08:51:47;102977.34;;;6.35;100.00
47104;BME280;32853;52.164;5.400;2023-11-22T08:56:58;102925.13;;;6.17;100.00
47104;BME280;32853;52.164;5.400;2023-11-22T08:59:25;103012.25;;;6.56;100.00
47104;BME280;32853;52.164;5.400;2023-11-22T09:02:12;103009.69;;;6.60;100.00
47104;BME280;32853;52.164;5.400;2023-11-22T09:04:53;102732.31;;;4.92;100.00
47104;BME280;32853;52.164;5.400;2023-11-22T09:07:47;103011.66;;;6.83;100.00
47104;BME280;32853;52.164;5.400;2023-11-22T09:10:13;102938.22;;;6.25;100.00
47104;BME280;32853;52.164;5.400;2023-11-22T09:12:41;102708.09;;;4.90;100.00
47104;BME280;32853;52.164;5.400;2023-11-22T09:15:13;102952.34;;;6.48;100.00
47104;BME280;32853;52.164;5.400;2023-11-22T09:17:52;102689.69;;;4.72;100.00
47104;BME280;32853;52.164;5.400;2023-11-22T09:20:52;103017.78;;;6.88;100.00
47104;BME280;32853;52.164;5.400;2023-11-22T09:30:43;103030.94;;;7.05;100.00
47104;BME280;32853;52.164;5.400;2023-11-22T09:33:50;103025.78;;;7.09;100.00
47104;BME280;32853;52.164;5.400;2023-11-22T09:39:56;102688.31;;;4.97;100.00
47104;BME280;32853;52.164;5.400;2023-11-22T09:42:41;103027.59;;;7.16;100.00
47104;BME280;32853;52.164;5.400;2023-11-22T09:45:09;103041.47;;;7.14;100.00
47104;BME280;32853;52.164;5.400;2023-11-22T09:47:48;102714.50;;;5.17;100.00
47104;BME280;32853;52.164;5.400;2023-11-22T09:53:41;102702.25;;;5.05;100.00
47104;BME280;32853;52.164;5.400;2023-11-22T09:56:27;102713.56;;;5.12;100.00
47104;BME280;32853;52.164;5.400;2023-11-22T09:59:11;102857.38;;;5.97;100.00
47104;BME280;32853;52.164;5.400;2023-11-22T10:01:52;102701.47;;;5.11;100.00
47104;BME280;32853;52.164;5.400;2023-11-22T10:07:58;102687.09;;;5.40;100.00
47104;BME280;32853;52.164;5.400;2023-11-22T10:10:38;102728.72;;;5.48;100.00
47104;BME280;32853;52.164;5.400;2023-11-22T10:13:25;102659.88;;;5.03;100.00
47104;BME280;32853;52.164;5.400;2023-11-22T10:16:11;102808.97;;;6.04;100.00
47104;BME280;32853;52.164;5.400;2023-11-22T10:25:22;102999.13;;;7.32;100.00
47104;BME280;32853;52.164;5.400;2023-11-22T10:28:11;103000.81;;;7.28;100.00
47104;BME280;32853;52.164;5.400;2023-11-22T10:30:46;102830.84;;;6.24;100.00
47104;BME280;32853;52.164;5.400;2023-11-22T10:33:20;102997.41;;;7.34;100.00
47104;BME280;32853;52.164;5.400;2023-11-22T10:38:55;103020.06;;;7.45;100.00
47104;BME280;32853;52.164;5.400;2023-11-22T10:44:48;102974.16;;;7.60;100.00
47104;BME280;32853;52.164;5.400;2023-11-22T10:47:42;102968.13;;;7.68;100.00
47104;BME280;32853;52.164;5.400;2023-11-22T10:50:11;102845.28;;;6.95;100.00
47104;BME280;32853;52.164;5.400;2023-11-22T10:52:41;102684.28;;;6.01;100.00
47104;BME280;32853;52.164;5.400;2023-11-22T10:55:15;102928.16;;;7.58;100.00
47104;BME280;32853;52.164;5.400;2023-11-22T10:57:45;102867.25;;;7.32;100.00
47104;BME280;32853;52.164;5.400;2023-11-22T11:00:19;102836.81;;;7.22;100.00
47104;BME280;32853;52.164;5.400;2023-11-22T11:02:54;102651.19;;;5.84;100.00
47104;BME280;32853;52.164;5.400;2023-11-22T11:05:37;102674.88;;;6.18;100.00
47104;BME280;32853;52.164;5.400;2023-11-22T11:08:16;102628.91;;;6.08;100.00
47104;BME280;32853;52.164;5.400;2023-11-22T11:10:45;102625.59;;;6.30;100.00
47104;BME280;32853;52.164;5.400;2023-11-22T11:13:11;102587.34;;;6.05;100.00
47104;BME280;32853;52.164;5.400;2023-11-22T11:15:39;102632.53;;;6.31;100.00
47104;BME280;32853;52.164;5.400;2023-11-22T11:18:07;102908.53;;;8.38;100.00
47104;BME280;32853;52.164;5.400;2023-11-22T11:20:56;102583.25;;;6.47;100.00
47104;BME280;32853;52.164;5.400;2023-11-22T11:23:26;102902.44;;;8.35;100.00
47104;BME280;32853;52.164;5.400;2023-11-22T11:26:08;102571.19;;;6.62;100.00
47104;BME280;32853;52.164;5.400;2023-11-22T11:28:43;102899.00;;;8.56;100.00
47104;BME280;32853;52.164;5.400;2023-11-22T11:31:09;102566.00;;;6.56;100.00
47104;BME280;32853;52.164;5.400;2023-11-22T11:36:32;102665.09;;;7.36;100.00
47104;BME280;32853;52.164;5.400;2023-11-22T11:39:02;102886.84;;;8.55;100.00
47104;BME280;32853;52.164;5.400;2023-11-22T11:41:31;102747.69;;;7.87;100.00
47104;BME280;32853;52.164;5.400;2023-11-22T11:44:14;102533.06;;;6.64;100.00
47104;BME280;32853;52.164;5.400;2023-11-22T11:46:47;102675.56;;;7.55;100.00
47104;BME280;32853;52.164;5.400;2023-11-22T11:49:13;102575.66;;;6.92;100.00
47104;BME280;32853;52.164;5.400;2023-11-22T11:51:41;102865.97;;;8.73;100.00
47104;BME280;32853;52.164;5.400;2023-11-22T11:54:09;102557.44;;;6.94;100.00
47104;BME280;32853;52.164;5.400;2023-11-22T11:56:39;102586.91;;;6.94;100.00
47104;BME280;32853;52.164;5.400;2023-11-22T11:59:11;102534.84;;;6.68;100.00
47104;BME280;32853;52.164;5.400;2023-11-22T12:01:52;102525.25;;;6.61;100.00
47104;BME280;32853;52.164;5.400;2023-11-22T12:04:18;102673.00;;;7.66;100.00
47104;BME280;32853;52.164;5.400;2023-11-22T12:06:44;102858.16;;;8.88;100.00
47104;BME280;32853;52.164;5.400;2023-11-22T12:09:30;102748.59;;;8.33;100.00
47104;BME280;32853;52.164;5.400;2023-11-22T12:11:59;102558.34;;;7.02;100.00
47104;BME280;32853;52.164;5.400;2023-11-22T12:14:57;102853.78;;;8.93;100.00
47104;BME280;32853;52.164;5.400;2023-11-22T12:17:41;102897.31;;;8.87;100.00
47104;BME280;32853;52.164;5.400;2023-11-22T12:20:15;102873.81;;;9.00;100.00
47104;BME280;32853;52.164;5.400;2023-11-22T12:22:44;102477.63;;;6.73;100.00
47104;BME280;32853;52.164;5.400;2023-11-22T12:25:16;102840.75;;;8.90;100.00
47104;BME280;32853;52.164;5.400;2023-11-22T12:27:42;102539.28;;;7.20;100.00
47104;BME280;32853;52.164;5.400;2023-11-22T12:30:31;102626.94;;;7.53;100.00
47104;BME280;32853;52.164;5.400;2023-11-22T12:33:09;102547.97;;;7.37;100.00
47104;BME280;32853;52.164;5.400;2023-11-22T12:35:38;102701.69;;;8.49;100.00
47104;BME280;32853;52.164;5.400;2023-11-22T12:38:12;102729.47;;;8.68;100.00
47104;BME280;32853;52.164;5.400;2023-11-22T12:40:43;102834.59;;;9.28;100.00
47104;BME280;32853;52.164;5.400;2023-11-22T12:43:16;102635.66;;;8.36;100.00
47104;BME280;32853;52.164;5.400;2023-11-22T12:45:43;102534.97;;;7.55;100.00
47104;BME280;32853;52.164;5.400;2023-11-22T12:48:24;102817.16;;;9.36;100.00
47104;BME280;32853;52.164;5.400;2023-11-22T12:50:50;102636.50;;;8.18;100.00
47104;BME280;32853;52.164;5.400;2023-11-22T12:53:16;102568.81;;;8.00;100.00
47104;BME280;32853;52.164;5.400;2023-11-22T12:55:46;102512.41;;;7.65;100.00
47104;BME280;32853;52.164;5.400;2023-11-22T12:58:17;102567.91;;;8.07;100.00
47104;BME280;32853;52.164;5.400;2023-11-22T13:00:47;102596.56;;;8.08;100.00
47104;BME280;32853;52.164;5.400;2023-11-22T13:03:18;102725.94;;;8.86;100.00
47104;BME280;32853;52.164;5.400;2023-11-22T13:05:49;102464.69;;;7.39;100.00
47104;BME280;32853;52.164;5.400;2023-11-22T13:08:17;102480.25;;;7.65;100.00
47104;BME280;32853;52.164;5.400;2023-11-22T13:10:58;102718.94;;;9.06;100.00
47104;BME280;32853;52.164;5.400;2023-11-22T13:13:25;102499.34;;;7.85;100.00
47104;BME280;32853;52.164;5.400;2023-11-22T13:15:53;102566.13;;;8.24;100.00
47104;BME280;32853;52.164;5.400;2023-11-22T13:18:19;102478.53;;;7.74;100.00
47104;BME280;32853;52.164;5.400;2023-11-22T13:20:48;102763.22;;;9.34;100.00
47104;BME280;32853;52.164;5.400;2023-11-22T13:23:26;102777.13;;;9.31;100.00
47104;BME280;32853;52.164;5.400;2023-11-22T13:25:52;102568.75;;;8.20;100.00
47104;BME280;32853;52.164;5.400;2023-11-22T13:28:20;102668.56;;;8.81;100.00
47104;BME280;32853;52.164;5.400;2023-11-22T13:31:15;102761.41;;;9.49;100.00
47104;BME280;32853;52.164;5.400;2023-11-22T13:33:43;102685.03;;;9.01;100.00
47104;BME280;32853;52.164;5.400;2023-11-22T13:36:14;102770.22;;;9.25;100.00
47104;BME280;32853;52.164;5.400;2023-11-22T13:38:40;102488.97;;;7.70;100.00
47104;BME280;32853;52.164;5.400;2023-11-22T13:41:24;102416.97;;;7.44;100.00
47104;BME280;32853;52.164;5.400;2023-11-22T13:43:58;102540.16;;;7.98;100.00
47104;BME280;32853;52.164;5.400;2023-11-22T13:46:24;102768.44;;;9.35;100.00
47104;BME280;32853;52.164;5.400;2023-11-22T13:48:49;102571.41;;;8.00;100.00
47104;BME280;32853;52.164;5.400;2023-11-22T13:51:15;102441.25;;;7.07;100.00
47104;BME280;32853;52.164;5.400;2023-11-22T13:53:42;102556.63;;;8.00;100.00
47104;BME280;32853;52.164;5.400;2023-11-22T13:56:09;102475.09;;;7.57;100.00
47104;BME280;32853;52.164;5.400;2023-11-22T13:58:35;102644.31;;;8.58;100.00
47104;BME280;32853;52.164;5.400;2023-11-22T14:01:01;102456.03;;;7.21;100.00
47104;BME280;32853;52.164;5.400;2023-11-22T14:03:26;102562.75;;;7.70;100.00
47104;BME280;32853;52.164;5.400;2023-11-22T14:06:06;102610.47;;;8.07;100.00
47104;BME280;32853;52.164;5.400;2023-11-22T14:08:37;102745.91;;;9.02;100.00
47104;BME280;32853;52.164;5.400;2023-11-22T14:11:02;102436.94;;;6.96;100.00
47104;BME280;32853;52.164;5.400;2023-11-22T14:13:38;102727.66;;;8.94;100.00
47104;BME280;32853;52.164;5.400;2023-11-22T14:16:05;102413.53;;;6.93;100.00
47104;BME280;32853;52.164;5.400;2023-11-22T14:18:39;102405.72;;;6.95;100.00
47104;BME280;32853;52.164;5.400;2023-11-22T14:21:17;102371.03;;;6.70;100.00
47104;BME280;32853;52.164;5.400;2023-11-22T14:23:48;102633.91;;;8.41;100.00
47104;BME280;32853;52.164;5.400;2023-11-22T14:26:19;102413.50;;;6.84;100.00
47104;BME280;32853;52.164;5.400;2023-11-22T14:32:36;102710.31;;;8.87;100.00
47104;BME280;32853;52.164;5.400;2023-11-22T14:35:12;102723.34;;;8.83;100.00
47104;BME280;32853;52.164;5.400;2023-11-22T14:41:00;102693.81;;;8.73;100.00
47104;BME280;32853;52.164;5.400;2023-11-22T14:44:04;102477.69;;;7.29;100.00
47104;BME280;32853;52.164;5.400;2023-11-22T14:46:37;102436.06;;;6.94;100.00
47104;BME280;32853;52.164;5.400;2023-11-22T14:49:23;102636.53;;;8.21;100.00
47104;BME280;32853;52.164;5.400;2023-11-22T14:58:08;102359.72;;;6.36;100.00
47104;BME280;32853;52.164;5.400;2023-11-22T15:10:56;102574.88;;;7.24;100.00
47104;BME280;32853;52.164;5.400;2023-11-22T15:16:45;102651.28;;;7.84;100.00
47104;BME280;32853;52.164;5.400;2023-11-22T15:19:20;102722.53;;;8.39;100.00
47104;BME280;32853;52.164;5.400;2023-11-22T15:21:56;102714.69;;;7.95;100.00
47104;BME280;32853;52.164;5.400;2023-11-22T15:24:30;102403.03;;;6.37;100.00
47104;BME280;32853;52.164;5.400;2023-11-22T15:26:56;102420.38;;;6.35;100.00
47104;BME280;32853;52.164;5.400;2023-11-22T15:29:22;102412.53;;;6.21;100.00
47104;BME280;32853;52.164;5.400;2023-11-22T15:31:48;102374.38;;;6.00;100.00
47104;BME280;32853;52.164;5.400;2023-11-22T15:34:21;102422.97;;;6.32;100.00
47104;BME280;32853;52.164;5.400;2023-11-22T15:36:46;102696.47;;;8.21;100.00
47104;BME280;32853;52.164;5.400;2023-11-22T15:39:12;102399.59;;;6.47;100.00
47104;BME280;32853;52.164;5.400;2023-11-22T15:41:42;102373.56;;;6.23;100.00
47104;BME280;32853;52.164;5.400;2023-11-22T15:44:09;102363.97;;;6.02;100.00
47104;BME280;32853;52.164;5.400;2023-11-22T15:46:37;102366.66;;;6.32;100.00
47104;BME280;32853;52.164;5.400;2023-11-22T15:49:19;102390.91;;;6.39;100.00
47104;BME280;32853;52.164;5.400;2023-11-22T15:55:40;102724.25;;;8.13;100.00
47104;BME280;32853;52.164;5.400;2023-11-22T15:58:06;102422.97;;;6.32;100.00
47104;BME280;32853;52.164;5.400;2023-11-22T16:00:49;102350.91;;;5.88;100.00
47104;BME280;32853;52.164;5.400;2023-11-22T16:03:33;102364.81;;;5.96;100.00
47104;BME280;32853;52.164;5.400;2023-11-22T16:09:29;102296.31;;;5.76;100.00
47104;BME280;32853;52.164;5.400;2023-11-22T16:12:21;102316.34;;;5.95;100.00
47104;BME280;32853;52.164;5.400;2023-11-22T16:18:31;102405.66;;;6.46;100.00
47104;BME280;32853;52.164;5.400;2023-11-22T16:21:36;102373.56;;;6.26;100.00
47104;BME280;32853;52.164;5.400;2023-11-22T16:30:24;102653.91;;;7.81;100.00
47104;BME280;32853;52.164;5.400;2023-11-22T16:33:26;102617.41;;;7.64;100.00
47104;BME280;32853;52.164;5.400;2023-11-22T16:36:12;102618.28;;;7.71;100.00
47104;BME280;32853;52.164;5.400;2023-11-22T16:39:03;102591.38;;;7.75;100.00
47104;BME280;32853;52.164;5.400;2023-11-22T16:41:35;102308.56;;;6.03;100.00
47104;BME280;32853;52.164;5.400;2023-11-22T16:44:03;102604.41;;;7.87;100.00
47104;BME280;32853;52.164;5.400;2023-11-22T16:46:38;102273.00;;;5.77;100.00
47104;BME280;32853;52.164;5.400;2023-11-22T16:49:06;102598.31;;;7.93;100.00
47104;BME280;32853;52.164;5.400;2023-11-22T16:51:43;102424.81;;;6.89;100.00
47104;BME280;32853;52.164;5.400;2023-11-22T16:54:47;102599.19;;;7.70;100.00
47104;BME280;32853;52.164;5.400;2023-11-22T16:57:37;102506.31;;;7.20;100.00
47104;BME280;32853;52.164;5.400;2023-11-22T17:00:03;102590.53;;;7.77;100.00
47104;BME280;32853;52.164;5.400;2023-11-22T17:02:34;102416.94;;;6.60;100.00
47104;BME280;32853;52.164;5.400;2023-11-22T17:04:59;102495.91;;;7.29;100.00
47104;BME280;32853;52.164;5.400;2023-11-22T17:07:27;102597.44;;;7.84;100.00
47104;BME280;32853;52.164;5.400;2023-11-22T17:09:54;102278.16;;;5.76;100.00
47104;BME280;32853;52.164;5.400;2023-11-22T17:12:22;102459.50;;;6.99;100.00
47104;BME280;32853;52.164;5.400;2023-11-22T17:14:48;102608.75;;;7.85;100.00
47104;BME280;32853;52.164;5.400;2023-11-22T17:17:40;102287.72;;;5.78;100.00
47104;BME280;32853;52.164;5.400;2023-11-22T17:20:11;102286.81;;;5.66;100.00
47104;BME280;32853;52.164;5.400;2023-11-22T17:22:47;102443.84;;;6.70;100.00
47104;BME280;32853;52.164;5.400;2023-11-22T17:25:16;102326.81;;;6.23;100.00
47104;BME280;32853;52.164;5.400;2023-11-22T17:28:03;102609.63;;;7.90;100.00
47104;BME280;32853;52.164;5.400;2023-11-22T17:30:31;102265.22;;;5.83;100.00
47104;BME280;32853;52.164;5.400;2023-11-22T17:33:01;102601.78;;;8.04;100.00
47104;BME280;32853;52.164;5.400;2023-11-22T17:35:27;102275.69;;;5.99;100.00
47104;BME280;32853;52.164;5.400;2023-11-22T17:37:55;102550.59;;;7.80;100.00
47104;BME280;32853;52.164;5.400;2023-11-22T17:40:49;102592.25;;;8.03;100.00
47104;BME280;32853;52.164;5.400;2023-11-22T17:46:27;102392.69;;;6.86;100.00
47104;BME280;32853;52.164;5.400;2023-11-22T17:48:55;102300.81;;;6.27;100.00
47104;BME280;32853;52.164;5.400;2023-11-22T17:51:37;102433.47;;;7.28;100.00
47104;BME280;32853;52.164;5.400;2023-11-22T17:54:25;102457.75;;;7.39;100.00
47104;BME280;32853;52.164;5.400;2023-11-22T17:56:51;102601.78;;;8.05;100.00
47104;BME280;32853;52.164;5.400;2023-11-22T17:59:24;102271.38;;;6.30;100.00
47104;BME280;32853;52.164;5.400;2023-11-22T18:05:27;102296.50;;;6.51;100.00
47104;BME280;32853;52.164;5.400;2023-11-22T18:08:06;102228.06;;;6.17;100.00
47104;BME280;32853;52.164;5.400;2023-11-22T18:10:47;102240.22;;;6.25;100.00
47104;BME280;32853;52.164;5.400;2023-11-22T18:13:40;102556.59;;;8.23;100.00
47104;BME280;32853;52.164;5.400;2023-11-22T18:16:12;102260.97;;;6.30;100.00
47104;BME280;32853;52.164;5.400;2023-11-22T18:18:57;102303.44;;;6.46;100.00
47104;BME280;32853;52.164;5.400;2023-11-22T18:21:48;102225.44;;;5.95;100.00
47104;BME280;32853;52.164;5.400;2023-11-22T18:25:08;102310.38;;;6.74;100.00
47104;BME280;32853;52.164;5.400;2023-11-22T18:31:12;102550.47;;;8.27;100.00
47104;BME280;32853;52.164;5.400;2023-11-22T18:33:51;102334.59;;;7.19;100.00
47104;BME280;32853;52.164;5.400;2023-11-22T18:36:19;102303.41;;;7.04;100.00
47104;BME280;32853;52.164;5.400;2023-11-22T18:38:54;102219.44;;;6.33;100.00
47104;BME280;32853;52.164;5.400;2023-11-22T18:41:24;102527.97;;;8.11;100.00
47104;BME280;32853;52.164;5.400;2023-11-22T18:43:59;102166.63;;;6.00;100.00
47104;BME280;32853;52.164;5.400;2023-11-22T18:46:25;102271.41;;;6.56;100.00
47104;BME280;32853;52.164;5.400;2023-11-22T18:48:54;102526.19;;;8.22;100.00
47104;BME280;32853;52.164;5.400;2023-11-22T18:51:48;102228.09;;;6.44;100.00
47104;BME280;32853;52.164;5.400;2023-11-22T18:54:19;102195.19;;;6.14;100.00
47104;BME280;32853;52.164;5.400;2023-11-22T18:56:58;102539.25;;;8.13;100.00
47104;BME280;32853;52.164;5.400;2023-11-22T18:59:31;102167.47;;;6.08;100.00
47104;BME280;32853;52.164;5.400;2023-11-22T19:02:01;102173.53;;;6.14;100.00
47104;BME280;32853;52.164;5.400;2023-11-22T19:04:32;102354.50;;;7.43;100.00
47104;BME280;32853;52.164;5.400;2023-11-22T19:07:02;102188.22;;;6.40;100.00
47104;BME280;32853;52.164;5.400;2023-11-22T19:09:31;102202.09;;;6.56;100.00
47104;BME280;32853;52.164;5.400;2023-11-22T19:12:01;102384.81;;;7.62;100.00
47104;BME280;32853;52.164;5.400;2023-11-22T19:14:30;102183.91;;;6.24;100.00
47104;BME280;32853;52.164;5.400;2023-11-22T19:16:59;102332.88;;;7.16;100.00
47104;BME280;32853;52.164;5.400;2023-11-22T19:19:31;102236.69;;;6.81;100.00
47104;BME280;32853;52.164;5.400;2023-11-22T19:21:57;102387.38;;;7.79;100.00
47104;BME280;32853;52.164;5.400;2023-11-22T19:24:24;102140.59;;;6.28;100.00
47104;BME280;32853;52.164;5.400;2023-11-22T19:26:49;102370.84;;;7.81;100.00
47104;BME280;32853;52.164;5.400;2023-11-22T19:29:16;102122.41;;;6.41;100.00
47104;BME280;32853;52.164;5.400;2023-11-22T19:31:45;102431.41;;;8.44;100.00
47104;BME280;32853;52.164;5.400;2023-11-22T19:34:19;102169.97;;;6.65;100.00
47104;BME280;32853;52.164;5.400;2023-11-22T19:40:01;102186.47;;;6.68;100.00
47104;BME280;32853;52.164;5.400;2023-11-22T19:42:31;102140.53;;;6.64;100.00
47104;BME280;32853;52.164;5.400;2023-11-22T19:44:59;102154.44;;;6.54;100.00
47104;BME280;32853;52.164;5.400;2023-11-22T19:47:31;102155.22;;;6.82;100.00
47104;BME280;32853;52.164;5.400;2023-11-22T19:50:01;102446.09;;;8.58;100.00
47104;BME280;32853;52.164;5.400;2023-11-22T19:52:36;102121.47;;;6.70;100.00
47104;BME280;32853;52.164;5.400;2023-11-22T19:55:23;102201.97;;;6.97;100.00
47104;BME280;32853;52.164;5.400;2023-11-22T19:57:52;102158.69;;;6.89;100.00
47104;BME280;32853;52.164;5.400;2023-11-22T20:00:22;102446.88;;;8.70;100.00
47104;BME280;32853;52.164;5.400;2023-11-22T20:02:50;102459.00;;;8.79;100.00
47104;BME280;32853;52.164;5.400;2023-11-22T20:05:15;102115.34;;;6.83;100.00
47104;BME280;32853;52.164;5.400;2023-11-22T20:07:43;102199.31;;;7.22;100.00
47104;BME280;32853;52.164;5.400;2023-11-22T20:18:14;102452.84;;;8.92;100.00
47104;BME280;32853;52.164;5.400;2023-11-22T20:21:31;102430.16;;;8.97;100.00
47104;BME280;32853;52.164;5.400;2023-11-22T20:39:31;102424.09;;;9.00;100.00
47104;BME280;32853;52.164;5.400;2023-11-22T20:42:06;102420.69;;;8.84;100.00
47104;BME280;32853;52.164;5.400;2023-11-22T20:44:49;102421.44;;;9.03;100.00
47104;BME280;32853;52.164;5.400;2023-11-22T20:47:14;102224.06;;;7.92;100.00
47104;BME280;32853;52.164;5.400;2023-11-22T20:49:41;102093.53;;;7.15;100.00
47104;BME280;32853;52.164;5.400;2023-11-22T20:52:13;102115.28;;;7.00;100.00
47104;BME280;32853;52.164;5.400;2023-11-22T20:57:25;102134.34;;;7.04;100.00
47104;BME280;32853;52.164;5.400;2023-11-22T21:00:24;102290.66;;;8.31;100.00
47104;BME280;32853;52.164;5.400;2023-11-22T21:02:58;102403.22;;;8.97;100.00
47104;BME280;32853;52.164;5.400;2023-11-22T21:05:36;102347.91;;;8.55;100.00
47104;BME280;32853;52.164;5.400;2023-11-22T21:08:32;102401.53;;;8.90;100.00
47104;BME280;32853;52.164;5.400;2023-11-22T21:11:18;102400.69;;;8.89;100.00
47104;BME280;32853;52.164;5.400;2023-11-22T21:16:48;102336.56;;;8.61;100.00
47104;BME280;32853;52.164;5.400;2023-11-22T21:19:14;102098.69;;;7.24;100.00
47104;BME280;32853;52.164;5.400;2023-11-22T21:21:40;102407.59;;;8.93;100.00
47104;BME280;32853;52.164;5.400;2023-11-22T21:24:18;102370.19;;;8.93;100.00
47104;BME280;32853;52.164;5.400;2023-11-22T21:26:43;102401.34;;;9.13;100.00
47104;BME280;32853;52.164;5.400;2023-11-22T21:29:13;102314.88;;;8.53;100.00
47104;BME280;32853;52.164;5.400;2023-11-22T21:31:39;102413.56;;;9.06;100.00
47104;BME280;32853;52.164;5.400;2023-11-22T21:34:06;102381.34;;;9.12;100.00
47104;BME280;32853;52.164;5.400;2023-11-22T21:36:32;102375.25;;;9.11;100.00
47104;BME280;32853;52.164;5.400;2023-11-22T21:39:06;102195.34;;;8.04;100.00
47104;BME280;32853;52.164;5.400;2023-11-22T21:41:52;102339.72;;;8.99;100.00
47104;BME280;32853;52.164;5.400;2023-11-22T21:44:19;102175.34;;;8.06;100.00
47104;BME280;32853;52.164;5.400;2023-11-22T21:46:53;102074.28;;;7.39;100.00
47104;BME280;32853;52.164;5.400;2023-11-22T21:49:19;102187.38;;;8.19;100.00